Time;durP1;ratioP1;P1;durP2;ratioP2;P2;SDS_P1;SDS_P2;PMS_P1;PMS_P2;Temp;Humidity;BMP_temperature;BMP_pressure;BME280_temperature;BME280_humidity;BME280_pressure;Samples;Min_cycle;Max_cycle;Signal;HPM_P1;HPM_P2
2022/04/16 00:00:06;;;;;;;3.03;1.60;;;;;;;;;;5108121;28;20093;-63
2022/04/16 00:02:32;;;;;;;3.10;1.65;;;;;;;;;;5093182;28;20020;-64
2022/04/16 00:04:59;;;;;;;4.57;1.75;;;;;;;;;;5093118;28;20070;-64
2022/04/16 00:07:25;;;;;;;3.90;1.77;;;;;;;;;;5093098;28;20084;-62
2022/04/16 00:09:51;;;;;;;3.33;1.75;;;;;;;;;;5092813;28;20036;-63
2022/04/16 00:12:17;;;;;;;4.18;1.88;;;;;;;;;;5092818;28;20097;-64
2022/04/16 00:14:43;;;;;;;3.97;1.92;;;;;;;;;;5092666;28;20394;-63
2022/04/16 00:17:09;;;;;;;3.10;1.63;;;;;;;;;;5092525;28;20032;-63
2022/04/16 00:19:36;;;;;;;4.25;1.63;;;;;;;;;;5106753;28;20143;-63
2022/04/16 00:22:07;;;;;;;4.15;1.85;;;;;;;;;;5094720;28;20033;-65
2022/04/16 00:24:33;;;;;;;3.10;1.55;;;;;;;;;;5113254;28;20073;-63
2022/04/16 00:26:59;;;;;;;3.75;1.80;;;;;;;;;;5112939;28;20024;-63
2022/04/16 00:29:26;;;;;;;3.10;1.50;;;;;;;;;;5112917;28;20390;-65
2022/04/16 00:31:52;;;;;;;4.22;1.90;;;;;;;;;;5112815;28;20382;-62
2022/04/16 00:34:19;;;;;;;4.72;1.77;;;;;;;;;;5112890;28;20020;-63
2022/04/16 00:36:46;;;;;;;4.90;2.10;;;;;;;;;;5112641;28;20024;-63
2022/04/16 00:39:12;;;;;;;4.65;1.73;;;;;;;;;;5112682;28;20374;-64
2022/04/16 00:41:41;;;;;;;4.38;1.80;;;;;;;;;;5094568;28;20019;-63
2022/04/16 00:44:07;;;;;;;3.70;2.00;;;;;;;;;;5112281;28;20391;-63
2022/04/16 00:46:34;;;;;;;3.75;1.85;;;;;;;;;;5112605;28;20023;-62
2022/04/16 00:49:00;;;;;;;2.83;1.63;;;;;;;;;;5112400;28;20038;-62
2022/04/16 00:51:27;;;;;;;4.15;1.70;;;;;;;;;;5112392;28;20066;-63
2022/04/16 00:53:53;;;;;;;3.17;1.85;;;;;;;;;;5112332;28;20027;-62
2022/04/16 00:56:19;;;;;;;4.10;2.10;;;;;;;;;;5112560;28;20050;-63
2022/04/16 00:58:45;;;;;;;3.53;1.80;;;;;;;;;;5094067;28;20475;-64
2022/04/16 01:01:11;;;;;;;4.55;2.28;;;;;;;;;;5112091;28;20106;-65
2022/04/16 01:03:42;;;;;;;3.65;1.80;;;;;;;;;;5112253;28;20024;-63
2022/04/16 01:06:14;;;;;;;3.53;1.88;;;;;;;;;;5112159;28;20012;-63
2022/04/16 01:08:41;;;;;;;3.63;2.00;;;;;;;;;;5082977;28;20509;-63
2022/04/16 01:11:07;;;;;;;3.65;2.10;;;;;;;;;;5091650;28;20503;-63
2022/04/16 01:13:33;;;;;;;3.50;1.83;;;;;;;;;;5092093;28;20028;-62
2022/04/16 01:15:59;;;;;;;3.45;1.83;;;;;;;;;;5091844;28;20075;-65
2022/04/16 01:18:25;;;;;;;4.20;2.10;;;;;;;;;;5091501;28;20463;-63
2022/04/16 01:20:51;;;;;;;3.58;2.05;;;;;;;;;;5073657;28;20020;-63
2022/04/16 01:23:18;;;;;;;4.75;2.00;;;;;;;;;;5091723;28;20478;-63
2022/04/16 01:25:44;;;;;;;3.97;1.95;;;;;;;;;;5091652;28;20488;-62
2022/04/16 01:28:12;;;;;;;4.28;2.53;;;;;;;;;;5091713;28;20031;-63
2022/04/16 01:30:38;;;;;;;4.78;2.08;;;;;;;;;;5091492;28;20674;-66
2022/04/16 01:33:04;;;;;;;4.30;2.22;;;;;;;;;;5091607;28;20028;-65
2022/04/16 01:35:30;;;;;;;4.22;2.22;;;;;;;;;;5073527;28;20056;-63
2022/04/16 01:37:57;;;;;;;4.38;2.40;;;;;;;;;;5091503;28;20020;-62
2022/04/16 01:40:26;;;;;;;3.95;2.22;;;;;;;;;;5073323;28;20047;-63
2022/04/16 01:42:56;;;;;;;4.55;2.47;;;;;;;;;;5091580;28;20045;-63
2022/04/16 01:45:23;;;;;;;3.45;1.98;;;;;;;;;;5091378;28;20119;-63
2022/04/16 01:47:50;;;;;;;4.07;2.25;;;;;;;;;;5091385;28;20041;-63
2022/04/16 01:50:18;;;;;;;4.13;2.10;;;;;;;;;;5091430;28;20070;-63
2022/04/16 01:52:44;;;;;;;5.03;2.72;;;;;;;;;;5091472;28;20600;-62
2022/04/16 01:55:12;;;;;;;3.28;2.00;;;;;;;;;;5073384;28;20028;-65
2022/04/16 01:57:38;;;;;;;4.43;2.40;;;;;;;;;;5091306;28;20030;-63
2022/04/16 02:00:07;;;;;;;5.68;2.40;;;;;;;;;;5091112;28;20105;-64
2022/04/16 02:02:33;;;;;;;4.15;2.28;;;;;;;;;;5073144;28;20020;-62
2022/04/16 02:04:59;;;;;;;5.18;2.53;;;;;;;;;;5091253;28;20100;-63
2022/04/16 02:07:25;;;;;;;4.65;2.15;;;;;;;;;;5091319;28;20036;-62
2022/04/16 02:09:51;;;;;;;4.25;2.47;;;;;;;;;;5093410;28;20514;-62
2022/04/16 02:12:17;;;;;;;5.03;2.88;;;;;;;;;;5101384;28;20023;-62
2022/04/16 02:14:43;;;;;;;6.20;2.65;;;;;;;;;;5087642;28;20031;-63
2022/04/16 02:17:09;;;;;;;6.43;2.80;;;;;;;;;;5110366;28;20378;-65
2022/04/16 02:19:38;;;;;;;15.90;3.10;;;;;;;;;;5082170;28;20016;-62
2022/04/16 02:22:04;;;;;;;6.97;2.83;;;;;;;;;;5105823;28;20424;-62
2022/04/16 02:24:30;;;;;;;6.60;3.28;;;;;;;;;;5108287;28;20011;-63
2022/04/16 02:26:57;;;;;;;9.23;3.13;;;;;;;;;;5101929;28;20364;-62
2022/04/16 02:29:23;;;;;;;5.70;2.95;;;;;;;;;;5100942;28;20028;-63
2022/04/16 02:31:49;;;;;;;8.98;3.17;;;;;;;;;;5104722;28;20144;-61
2022/04/16 02:34:16;;;;;;;8.38;2.90;;;;;;;;;;5097721;28;20028;-62
2022/04/16 02:36:43;;;;;;;4.18;2.60;;;;;;;;;;5110201;28;20024;-62
2022/04/16 02:39:09;;;;;;;6.80;3.10;;;;;;;;;;5088083;28;20024;-61
2022/04/16 02:41:36;;;;;;;7.03;3.20;;;;;;;;;;5102968;28;20091;-64
2022/04/16 02:44:02;;;;;;;6.22;2.97;;;;;;;;;;5107501;28;20058;-64
2022/04/16 02:49:13;;;;;;;7.22;3.05;;;;;;;;;;5106054;28;20079;-64
2022/04/16 02:51:39;;;;;;;6.95;2.97;;;;;;;;;;5104588;28;20027;-62
2022/04/16 02:54:05;;;;;;;5.57;3.00;;;;;;;;;;5098406;28;20467;-62
2022/04/16 02:56:32;;;;;;;5.82;3.08;;;;;;;;;;5109688;28;20016;-62
2022/04/16 02:58:58;;;;;;;4.72;2.78;;;;;;;;;;5098180;28;20055;-61
2022/04/16 03:01:24;;;;;;;5.35;3.20;;;;;;;;;;5106193;28;20023;-63
2022/04/16 03:03:50;;;;;;;6.57;3.10;;;;;;;;;;5100525;28;20016;-64
2022/04/16 03:06:16;;;;;;;6.03;3.45;;;;;;;;;;5074881;28;20031;-62
2022/04/16 03:08:43;;;;;;;5.03;2.90;;;;;;;;;;5094238;28;20089;-62
2022/04/16 03:11:09;;;;;;;6.20;3.30;;;;;;;;;;5108267;28;20034;-64
2022/04/16 03:13:35;;;;;;;6.75;3.45;;;;;;;;;;5097730;28;20610;-62
2022/04/16 03:18:46;;;;;;;5.88;3.28;;;;;;;;;;5113415;28;20429;-62
2022/04/16 03:21:13;;;;;;;5.00;3.22;;;;;;;;;;5113317;28;20015;-63
2022/04/16 03:23:39;;;;;;;5.72;3.28;;;;;;;;;;5113362;28;20067;-62
2022/04/16 03:26:05;;;;;;;5.82;3.10;;;;;;;;;;5113380;28;20072;-63
2022/04/16 03:28:34;;;;;;;5.03;3.03;;;;;;;;;;5113411;28;20038;-62
2022/04/16 03:31:00;;;;;;;5.82;3.00;;;;;;;;;;5113185;28;20050;-63
2022/04/16 03:33:26;;;;;;;6.65;3.00;;;;;;;;;;5113269;28;20094;-63
2022/04/16 03:35:52;;;;;;;6.13;3.13;;;;;;;;;;5094952;28;20024;-62
2022/04/16 03:38:19;;;;;;;5.75;3.20;;;;;;;;;;5113488;28;20379;-62
2022/04/16 03:40:48;;;;;;;5.32;3.30;;;;;;;;;;5112843;28;20108;-62
2022/04/16 03:43:14;;;;;;;6.30;3.25;;;;;;;;;;5112615;28;20149;-64
2022/04/16 03:45:40;;;;;;;4.85;3.15;;;;;;;;;;5112956;28;20119;-62
2022/04/16 03:48:07;;;;;;;4.18;2.60;;;;;;;;;;5112779;28;20023;-62
2022/04/16 03:50:34;;;;;;;5.07;3.30;;;;;;;;;;5112954;28;20035;-62
2022/04/16 03:53:00;;;;;;;5.43;3.00;;;;;;;;;;5094450;28;20485;-62
2022/04/16 04:01:01;;;;;;;6.03;3.00;;;;;;;;;;5099592;28;20088;-63
2022/04/16 04:03:27;;;;;;;5.82;2.95;;;;;;;;;;5092396;28;20020;-62
2022/04/16 04:05:54;;;;;;;4.93;2.78;;;;;;;;;;5074049;28;20024;-62
2022/04/16 04:08:22;;;;;;;9.45;2.60;;;;;;;;;;5074041;28;20473;-61
2022/04/16 04:10:48;;;;;;;6.00;3.38;;;;;;;;;;5092232;28;20497;-62
2022/04/16 04:13:14;;;;;;;4.55;2.75;;;;;;;;;;5092125;28;20060;-63
2022/04/16 04:15:41;;;;;;;5.82;2.67;;;;;;;;;;5092119;28;20027;-62
2022/04/16 04:18:07;;;;;;;5.22;2.63;;;;;;;;;;5091890;28;20028;-62
2022/04/16 04:20:35;;;;;;;4.47;2.60;;;;;;;;;;5073671;28;20024;-64
2022/04/16 04:23:01;;;;;;;4.13;2.55;;;;;;;;;;5092000;28;20109;-62
2022/04/16 04:25:28;;;;;;;4.40;2.45;;;;;;;;;;5073578;28;20470;-66
2022/04/16 04:27:54;;;;;;;4.18;2.33;;;;;;;;;;5091630;28;20024;-66
2022/04/16 04:30:20;;;;;;;5.43;2.58;;;;;;;;;;5073311;28;20501;-65
2022/04/16 04:32:46;;;;;;;4.82;2.67;;;;;;;;;;5091717;28;20435;-62
2022/04/16 04:35:12;;;;;;;5.38;2.67;;;;;;;;;;5091819;28;20106;-62
2022/04/16 04:37:38;;;;;;;5.25;2.90;;;;;;;;;;5091811;28;20575;-62
2022/04/16 04:40:05;;;;;;;4.32;2.58;;;;;;;;;;5091657;28;20051;-65
2022/04/16 04:42:32;;;;;;;3.58;2.20;;;;;;;;;;5091522;28;20016;-62
2022/04/16 04:44:58;;;;;;;5.05;2.42;;;;;;;;;;5091395;28;20137;-61
2022/04/16 04:47:24;;;;;;;5.15;2.67;;;;;;;;;;5091438;28;20027;-61
2022/04/16 04:49:51;;;;;;;5.10;2.50;;;;;;;;;;5091317;28;20519;-62
2022/04/16 04:52:26;;;;;;;3.92;2.40;;;;;;;;;;5091582;28;20589;-63
2022/04/16 04:54:53;;;;;;;4.95;2.40;;;;;;;;;;5072550;28;20032;-62
2022/04/16 04:57:19;;;;;;;3.95;2.30;;;;;;;;;;5091382;28;20085;-62
2022/04/16 04:59:45;;;;;;;4.88;2.40;;;;;;;;;;5091044;28;20020;-63
2022/04/16 05:02:11;;;;;;;4.38;2.53;;;;;;;;;;5091325;28;20020;-62
2022/04/16 05:04:37;;;;;;;4.18;1.95;;;;;;;;;;5091156;28;20531;-62
2022/04/16 05:07:05;;;;;;;4.70;2.75;;;;;;;;;;5091217;28;20028;-62
2022/04/16 05:09:31;;;;;;;3.97;2.28;;;;;;;;;;5091324;28;20027;-62
2022/04/16 05:11:57;;;;;;;6.50;2.15;;;;;;;;;;5091003;28;20503;-63
2022/04/16 05:14:23;;;;;;;4.63;2.38;;;;;;;;;;5082461;28;20027;-62
2022/04/16 05:16:49;;;;;;;4.43;2.35;;;;;;;;;;5111044;28;20028;-61
2022/04/16 05:19:15;;;;;;;5.32;2.45;;;;;;;;;;5110997;28;20020;-62
2022/04/16 05:21:42;;;;;;;4.22;2.20;;;;;;;;;;5111166;28;20033;-66
2022/04/16 05:24:08;;;;;;;5.15;2.35;;;;;;;;;;5111265;28;20011;-62
2022/04/16 05:26:35;;;;;;;4.43;2.00;;;;;;;;;;5111296;28;20549;-63
2022/04/16 05:29:01;;;;;;;5.03;2.40;;;;;;;;;;5111094;28;20027;-63
2022/04/16 05:31:27;;;;;;;4.90;2.28;;;;;;;;;;5111166;28;20028;-63
2022/04/16 05:36:39;;;;;;;4.55;2.60;;;;;;;;;;5111029;28;20563;-62
2022/04/16 05:39:05;;;;;;;5.68;2.30;;;;;;;;;;5111057;28;20020;-62
2022/04/16 05:41:34;;;;;;;4.25;2.42;;;;;;;;;;5111027;28;20066;-62
2022/04/16 05:44:03;;;;;;;4.25;2.17;;;;;;;;;;5110936;28;20105;-62
2022/04/16 05:46:29;;;;;;;4.72;2.25;;;;;;;;;;5110872;28;20026;-62
2022/04/16 05:48:55;;;;;;;4.43;2.10;;;;;;;;;;5110857;28;20027;-61
2022/04/16 05:51:22;;;;;;;4.47;2.20;;;;;;;;;;5110931;28;20032;-61
2022/04/16 05:53:49;;;;;;;5.05;2.30;;;;;;;;;;5110902;28;20478;-64
2022/04/16 05:56:16;;;;;;;4.45;2.15;;;;;;;;;;5110898;28;20020;-63
2022/04/16 05:58:42;;;;;;;4.82;2.15;;;;;;;;;;5092592;28;20097;-65
2022/04/16 06:01:09;;;;;;;4.05;2.20;;;;;;;;;;5110767;28;20035;-61
2022/04/16 06:03:42;;;;;;;4.55;2.40;;;;;;;;;;5110847;28;20020;-63
2022/04/16 06:06:08;;;;;;;;;;;;;;;;;;5114299;28;20451;-60
2022/04/16 06:08:34;;;;;;;3.70;1.70;;;;;;;;;;5114893;28;19990;-62
2022/04/16 06:11:00;;;;;;;5.15;2.50;;;;;;;;;;5114918;28;20089;-61
2022/04/16 06:13:26;;;;;;;4.18;2.15;;;;;;;;;;5113585;28;20022;-62
2022/04/16 06:15:52;;;;;;;3.58;1.90;;;;;;;;;;5114267;28;20077;-62
2022/04/16 06:18:18;;;;;;;4.03;2.10;;;;;;;;;;5114553;28;20530;-61
2022/04/16 06:20:44;;;;;;;4.20;2.15;;;;;;;;;;5114253;28;20390;-64
2022/04/16 06:23:10;;;;;;;4.47;2.40;;;;;;;;;;5114597;28;20024;-61
2022/04/16 06:25:36;;;;;;;4.43;2.25;;;;;;;;;;5114339;28;20072;-61
2022/04/16 06:28:03;;;;;;;4.55;2.10;;;;;;;;;;5114498;28;20064;-61
2022/04/16 06:30:29;;;;;;;6.25;2.60;;;;;;;;;;5114536;28;20028;-62
2022/04/16 06:32:55;;;;;;;6.72;2.20;;;;;;;;;;5114633;28;20031;-61
2022/04/16 06:35:21;;;;;;;4.03;1.95;;;;;;;;;;5114559;28;20156;-62
2022/04/16 06:37:47;;;;;;;3.65;2.05;;;;;;;;;;5114335;28;20019;-61
2022/04/16 06:40:13;;;;;;;3.42;1.90;;;;;;;;;;5114480;28;20047;-61
2022/04/16 06:42:40;;;;;;;4.90;2.10;;;;;;;;;;5114207;28;20027;-62
2022/04/16 06:45:06;;;;;;;4.55;1.95;;;;;;;;;;5114059;28;20058;-62
2022/04/16 06:47:33;;;;;;;5.18;2.28;;;;;;;;;;5114098;28;20031;-61
2022/04/16 06:49:59;;;;;;;3.58;2.00;;;;;;;;;;5114097;28;20043;-62
2022/04/16 06:52:26;;;;;;;3.78;1.85;;;;;;;;;;5114453;28;20043;-62
2022/04/16 06:54:52;;;;;;;8.55;2.03;;;;;;;;;;5113852;28;20062;-61
2022/04/16 06:57:18;;;;;;;2.72;1.50;;;;;;;;;;5114028;28;20028;-61
2022/04/16 06:59:44;;;;;;;3.42;1.80;;;;;;;;;;5113747;28;20028;-61
2022/04/16 07:02:11;;;;;;;3.33;1.75;;;;;;;;;;5113893;28;20023;-61
2022/04/16 07:04:38;;;;;;;4.10;1.85;;;;;;;;;;5113878;28;20023;-62
2022/04/16 07:07:04;;;;;;;3.78;1.80;;;;;;;;;;5113414;28;20027;-62
2022/04/16 07:09:31;;;;;;;4.15;1.95;;;;;;;;;;5113455;28;20024;-64
2022/04/16 07:11:57;;;;;;;3.65;1.88;;;;;;;;;;5113364;28;20582;-64
2022/04/16 07:14:23;;;;;;;3.50;1.90;;;;;;;;;;5113975;28;20509;-63
2022/04/16 07:16:49;;;;;;;5.82;2.08;;;;;;;;;;5112809;28;20012;-63
2022/04/16 07:19:15;;;;;;;5.47;1.67;;;;;;;;;;5113098;28;20030;-64
2022/04/16 07:21:41;;;;;;;23.00;1.75;;;;;;;;;;5095164;28;20027;-63
2022/04/16 07:24:07;;;;;;;3.60;1.90;;;;;;;;;;5113217;28;20027;-61
2022/04/16 07:26:33;;;;;;;5.35;1.75;;;;;;;;;;5113252;28;20057;-62
2022/04/16 07:28:59;;;;;;;3.40;1.50;;;;;;;;;;5113360;28;20023;-62
2022/04/16 07:31:25;;;;;;;3.72;1.63;;;;;;;;;;5113289;28;20032;-63
2022/04/16 07:33:51;;;;;;;3.90;1.85;;;;;;;;;;5113179;28;20027;-63
2022/04/16 07:36:17;;;;;;;3.97;1.90;;;;;;;;;;5094898;28;20020;-63
2022/04/16 07:38:43;;;;;;;4.10;1.60;;;;;;;;;;5094924;28;20012;-62
2022/04/16 07:41:10;;;;;;;3.50;1.70;;;;;;;;;;5113284;28;20378;-63
2022/04/16 07:43:36;;;;;;;3.42;1.77;;;;;;;;;;5113077;28;20510;-63
2022/04/16 07:46:02;;;;;;;4.25;1.80;;;;;;;;;;5112997;28;20489;-63
2022/04/16 07:48:28;;;;;;;4.07;1.52;;;;;;;;;;5112997;28;20024;-65
2022/04/16 07:50:54;;;;;;;4.32;1.80;;;;;;;;;;5112728;28;20038;-63
2022/04/16 07:53:21;;;;;;;3.65;1.42;;;;;;;;;;5112810;28;20026;-63
2022/04/16 07:55:47;;;;;;;4.93;1.73;;;;;;;;;;5112746;28;20027;-65
2022/04/16 07:58:13;;;;;;;3.15;1.58;;;;;;;;;;5112819;28;20041;-63
2022/04/16 08:00:39;;;;;;;9.43;1.65;;;;;;;;;;5110274;28;20016;-63
2022/04/16 08:03:06;;;;;;;8.45;1.63;;;;;;;;;;5101558;28;20024;-63
2022/04/16 08:05:32;;;;;;;5.72;1.70;;;;;;;;;;5092706;28;20032;-65
2022/04/16 08:07:58;;;;;;;6.53;1.75;;;;;;;;;;5092938;28;20028;-63
2022/04/16 08:10:24;;;;;;;3.53;1.50;;;;;;;;;;5092862;28;20032;-65
2022/04/16 08:12:50;;;;;;;2.90;1.50;;;;;;;;;;5074717;28;20031;-63
2022/04/16 08:15:16;;;;;;;3.72;1.60;;;;;;;;;;5092901;28;20024;-66
2022/04/16 08:17:42;;;;;;;3.95;1.80;;;;;;;;;;5093012;28;20016;-63
2022/04/16 08:20:08;;;;;;;3.42;1.65;;;;;;;;;;5092736;28;20030;-63
2022/04/16 08:22:35;;;;;;;3.40;1.52;;;;;;;;;;5092690;28;20031;-64
2022/04/16 08:27:46;;;;;;;2.85;1.45;;;;;;;;;;5107688;28;20537;-63
2022/04/16 08:30:13;;;;;;;3.80;1.88;;;;;;;;;;5108740;28;20039;-66
2022/04/16 08:32:43;;;;;;;6.22;1.98;;;;;;;;;;5108878;28;20024;-61
2022/04/16 08:35:18;;;;;;;3.72;1.33;;;;;;;;;;5107832;28;20107;-62
2022/04/16 08:37:45;;;;;;;2.60;1.58;;;;;;;;;;5099764;28;20035;-64
2022/04/16 08:40:12;;;;;;;2.92;1.35;;;;;;;;;;5108447;28;20016;-63
2022/04/16 08:42:39;;;;;;;2.75;1.60;;;;;;;;;;5112652;28;20028;-62
2022/04/16 08:45:06;;;;;;;3.08;1.30;;;;;;;;;;5112341;28;20070;-62
2022/04/16 08:47:32;;;;;;;10.57;1.75;;;;;;;;;;5105843;28;20678;-64
2022/04/16 08:50:02;;;;;;;80.18;7.72;;;;;;;;;;5100746;28;20035;-62
2022/04/16 08:52:31;;;;;;;72.40;6.38;;;;;;;;;;5106313;28;20103;-63
2022/04/16 08:54:58;;;;;;;47.88;5.28;;;;;;;;;;5108904;28;20103;-62
2022/04/16 08:57:24;;;;;;;38.63;4.22;;;;;;;;;;5098043;28;20027;-62
2022/04/16 08:59:54;;;;;;;34.85;3.92;;;;;;;;;;5108086;28;20031;-62
2022/04/16 09:02:20;;;;;;;28.77;4.43;;;;;;;;;;5082588;28;20024;-62
2022/04/16 09:04:47;;;;;;;35.38;4.18;;;;;;;;;;5099806;28;20020;-62
2022/04/16 09:07:13;;;;;;;31.17;3.83;;;;;;;;;;5105586;28;20073;-62
2022/04/16 09:09:39;;;;;;;31.75;3.45;;;;;;;;;;5106783;28;20036;-62
2022/04/16 09:12:18;;;;;;;25.83;2.67;;;;;;;;;;5105650;28;20027;-62
2022/04/16 09:14:45;;;;;;;26.13;2.95;;;;;;;;;;5099156;28;20024;-62
2022/04/16 09:17:18;;;;;;;25.08;2.83;;;;;;;;;;5108236;28;20471;-62
2022/04/16 09:19:52;;;;;;;24.48;3.05;;;;;;;;;;5111487;28;20032;-63
2022/04/16 09:22:34;;;;;;;22.60;3.10;;;;;;;;;;5095604;28;20042;-62
2022/04/16 09:25:00;;;;;;;21.20;2.83;;;;;;;;;;5101548;28;20430;-63
2022/04/16 09:27:27;;;;;;;13.70;2.60;;;;;;;;;;5086439;28;20161;-63
2022/04/16 09:29:54;;;;;;;19.77;2.83;;;;;;;;;;5088281;28;20055;-62
2022/04/16 09:32:23;;;;;;;14.30;1.90;;;;;;;;;;5106942;28;20028;-62
2022/04/16 09:34:49;;;;;;;12.52;2.15;;;;;;;;;;5080960;28;20020;-62
2022/04/16 09:37:15;;;;;;;17.98;2.35;;;;;;;;;;5111219;28;20067;-62
2022/04/16 09:39:41;;;;;;;9.10;2.40;;;;;;;;;;5095046;28;20024;-63
2022/04/16 09:42:07;;;;;;;21.70;2.42;;;;;;;;;;5110265;28;20085;-62
2022/04/16 09:44:34;;;;;;;18.85;4.38;;;;;;;;;;5104537;28;20036;-64
2022/04/16 09:47:00;;;;;;;15.93;2.35;;;;;;;;;;5101086;28;20030;-62
2022/04/16 09:49:26;;;;;;;13.45;2.33;;;;;;;;;;5096991;28;20056;-62
2022/04/16 09:51:52;;;;;;;19.38;2.25;;;;;;;;;;5107266;28;20031;-62
2022/04/16 09:54:22;;;;;;;11.90;2.20;;;;;;;;;;5095126;28;20020;-62
2022/04/16 09:56:48;;;;;;;13.30;2.45;;;;;;;;;;5102481;28;20036;-63
2022/04/16 09:59:15;;;;;;;11.90;2.10;;;;;;;;;;5102692;28;20052;-62
2022/04/16 10:01:46;;;;;;;10.95;1.98;;;;;;;;;;5094928;28;20028;-62
2022/04/16 10:04:14;;;;;;;15.27;2.30;;;;;;;;;;5106843;28;20567;-62
2022/04/16 10:06:41;;;;;;;25.83;4.70;;;;;;;;;;5101423;28;20095;-65
2022/04/16 10:09:14;;;;;;;8.88;2.08;;;;;;;;;;5083135;28;20015;-62
2022/04/16 10:12:59;;;;;;;;;;;;;;;;;;5096816;28;20089;-62
2022/04/16 10:14:48;;;;;;;14.73;2.05;;;;;;;;;;5096484;28;20321;-61
2022/04/16 10:17:15;;;;;;;12.13;1.92;;;;;;;;;;5099390;28;20024;-62
2022/04/16 10:19:46;;;;;;;12.27;2.42;;;;;;;;;;5076323;28;20549;-63
2022/04/16 10:22:23;;;;;;;8.80;1.98;;;;;;;;;;5110246;28;20020;-61
2022/04/16 10:24:49;;;;;;;6.55;1.95;;;;;;;;;;5110245;28;20491;-62
2022/04/16 10:27:26;;;;;;;18.10;2.83;;;;;;;;;;5091886;28;20387;-62
2022/04/16 10:29:54;;;;;;;14.30;2.65;;;;;;;;;;5090903;28;20025;-63
2022/04/16 10:32:20;;;;;;;9.90;2.05;;;;;;;;;;5091028;28;20024;-63
2022/04/16 10:34:46;;;;;;;9.93;1.95;;;;;;;;;;5091049;28;20020;-64
2022/04/16 10:37:23;;;;;;;9.43;1.75;;;;;;;;;;5091184;28;20031;-62
2022/04/16 10:39:52;;;;;;;6.32;1.75;;;;;;;;;;5090947;28;20443;-62
2022/04/16 10:42:28;;;;;;;11.70;1.90;;;;;;;;;;5090988;28;20031;-62
2022/04/16 10:44:54;;;;;;;7.15;1.30;;;;;;;;;;5090737;28;20086;-63
2022/04/16 10:47:21;;;;;;;5.38;1.45;;;;;;;;;;5090991;28;20024;-62
2022/04/16 10:49:47;;;;;;;8.43;1.55;;;;;;;;;;5090861;28;20047;-62
2022/04/16 10:52:23;;;;;;;4.88;1.65;;;;;;;;;;5092382;28;20594;-62
2022/04/16 10:55:00;;;;;;;9.90;1.55;;;;;;;;;;5094522;28;20020;-62
2022/04/16 10:57:26;;;;;;;9.45;1.90;;;;;;;;;;5094439;28;20028;-63
2022/04/16 10:59:56;;;;;;;14.57;1.90;;;;;;;;;;5094131;28;20012;-63
2022/04/16 11:02:23;;;;;;;4.75;1.85;;;;;;;;;;5094428;28;20051;-62
2022/04/16 11:04:59;;;;;;;6.80;1.90;;;;;;;;;;5094278;28;20028;-63
2022/04/16 11:07:26;;;;;;;5.90;1.35;;;;;;;;;;5093998;28;20028;-64
2022/04/16 11:09:53;;;;;;;9.18;1.75;;;;;;;;;;5094035;28;20034;-62
2022/04/16 11:12:22;;;;;;;9.13;1.73;;;;;;;;;;5094324;28;20052;-62
2022/04/16 11:14:51;;;;;;;7.15;2.00;;;;;;;;;;5075868;28;20077;-64
2022/04/16 11:17:19;;;;;;;11.48;1.75;;;;;;;;;;5094368;28;20023;-63
2022/04/16 11:19:47;;;;;;;4.07;1.60;;;;;;;;;;5094090;28;20103;-64
2022/04/16 11:22:14;;;;;;;3.63;1.55;;;;;;;;;;5094139;28;20470;-63
2022/04/16 11:24:40;;;;;;;7.05;1.52;;;;;;;;;;5094005;28;20081;-63
2022/04/16 11:35:24;;;;;;;4.97;1.30;;;;;;;;;;5093488;28;20027;-63
2022/04/16 11:37:54;;;;;;;4.80;1.42;;;;;;;;;;5093523;28;20031;-62
2022/04/16 11:40:20;;;;;;;4.72;1.60;;;;;;;;;;5093751;28;20095;-63
2022/04/16 11:42:46;;;;;;;5.60;1.60;;;;;;;;;;5093767;28;20028;-63
2022/04/16 11:45:14;;;;;;;6.07;1.77;;;;;;;;;;5093299;28;20059;-63
2022/04/16 11:47:40;;;;;;;3.40;1.13;;;;;;;;;;5093495;28;20016;-62
2022/04/16 11:50:08;;;;;;;2.95;1.00;;;;;;;;;;5092774;28;20036;-62
2022/04/16 11:52:35;;;;;;;6.22;1.58;;;;;;;;;;5106555;28;20012;-62
2022/04/16 11:55:01;;;;;;;2.65;1.13;;;;;;;;;;5112361;28;20031;-63
2022/04/16 11:57:27;;;;;;;4.90;1.20;;;;;;;;;;5112431;28;20031;-62
2022/04/16 11:59:57;;;;;;;3.67;1.13;;;;;;;;;;5111494;28;20012;-65
2022/04/16 12:02:29;;;;;;;5.53;1.40;;;;;;;;;;5112057;28;20026;-63
2022/04/16 12:04:55;;;;;;;2.83;1.20;;;;;;;;;;5112081;28;20095;-63
2022/04/16 12:07:25;;;;;;;4.18;1.20;;;;;;;;;;5111958;28;20020;-64
2022/04/16 12:09:51;;;;;;;4.65;1.30;;;;;;;;;;5111872;28;20486;-64
2022/04/16 12:12:19;;;;;;;3.20;1.08;;;;;;;;;;5111796;28;20024;-62
2022/04/16 12:14:46;;;;;;;4.70;1.10;;;;;;;;;;5111980;28;20020;-62
2022/04/16 12:17:12;;;;;;;3.75;1.30;;;;;;;;;;5093705;28;20023;-63
2022/04/16 12:19:38;;;;;;;3.67;1.33;;;;;;;;;;5111989;28;20060;-62
2022/04/16 12:22:04;;;;;;;3.60;1.10;;;;;;;;;;5110236;28;20091;-61
2022/04/16 12:24:30;;;;;;;3.58;1.13;;;;;;;;;;5111936;28;20442;-63
2022/04/16 12:26:56;;;;;;;7.43;1.50;;;;;;;;;;5111865;28;20022;-62
2022/04/16 12:29:30;;;;;;;5.32;1.30;;;;;;;;;;5111555;28;20027;-63
2022/04/16 12:31:58;;;;;;;8.25;1.25;;;;;;;;;;5092576;28;20119;-63
2022/04/16 12:34:25;;;;;;;4.95;1.10;;;;;;;;;;5110775;28;20012;-63
2022/04/16 12:36:51;;;;;;;3.92;1.10;;;;;;;;;;5111453;28;20019;-64
2022/04/16 12:39:17;;;;;;;3.00;0.98;;;;;;;;;;5111596;28;20057;-62
2022/04/16 12:41:43;;;;;;;3.25;1.10;;;;;;;;;;5111659;28;20028;-63
2022/04/16 12:44:09;;;;;;;2.40;0.90;;;;;;;;;;5111426;28;20046;-63
2022/04/16 12:46:35;;;;;;;2.80;0.80;;;;;;;;;;5110985;28;20071;-66
2022/04/16 12:49:01;;;;;;;4.10;1.48;;;;;;;;;;5111176;28;20012;-64
2022/04/16 12:51:27;;;;;;;2.33;0.88;;;;;;;;;;5082148;28;20492;-63
2022/04/16 12:53:53;;;;;;;3.80;1.08;;;;;;;;;;5100588;28;20019;-63
2022/04/16 12:56:20;;;;;;;3.55;0.85;;;;;;;;;;5101494;28;20020;-63
2022/04/16 12:58:46;;;;;;;6.18;0.95;;;;;;;;;;5099824;28;20490;-64
2022/04/16 13:01:12;;;;;;;5.03;0.90;;;;;;;;;;5081209;28;20016;-64
2022/04/16 13:03:38;;;;;;;6.72;0.93;;;;;;;;;;5101170;28;20084;-62
2022/04/16 13:06:04;;;;;;;3.78;1.00;;;;;;;;;;5081777;28;20082;-63
2022/04/16 13:08:30;;;;;;;4.70;1.08;;;;;;;;;;5099850;28;20024;-64
2022/04/16 13:10:56;;;;;;;5.00;0.80;;;;;;;;;;5112014;28;20036;-63
2022/04/16 13:13:24;;;;;;;5.38;1.10;;;;;;;;;;5112361;28;20047;-62
2022/04/16 13:15:51;;;;;;;11.85;1.35;;;;;;;;;;5103279;28;20020;-63
2022/04/16 13:18:17;;;;;;;7.00;0.98;;;;;;;;;;5099792;28;20016;-64
2022/04/16 13:20:43;;;;;;;6.43;0.75;;;;;;;;;;5091578;28;20099;-64
2022/04/16 13:23:09;;;;;;;5.60;1.00;;;;;;;;;;5091631;28;20020;-63
2022/04/16 13:25:35;;;;;;;70.53;36.42;;;;;;;;;;5093350;28;20084;-63
2022/04/16 13:28:01;;;;;;;322.30;132.30;;;;;;;;;;5111361;28;20008;-63
2022/04/16 13:30:28;;;;;;;202.73;87.35;;;;;;;;;;5102903;28;20035;-62
2022/04/16 13:32:54;;;;;;;152.50;63.92;;;;;;;;;;5110520;28;20020;-63
2022/04/16 13:35:20;;;;;;;123.28;54.58;;;;;;;;;;5095327;28;20107;-63
2022/04/16 13:37:46;;;;;;;129.02;54.95;;;;;;;;;;5096620;28;20487;-63
2022/04/16 13:42:57;;;;;;;102.85;44.53;;;;;;;;;;5096747;28;20059;-62
2022/04/16 13:45:23;;;;;;;93.20;39.75;;;;;;;;;;5111034;28;20047;-63
2022/04/16 13:47:49;;;;;;;91.10;40.08;;;;;;;;;;5094145;28;20028;-63
2022/04/16 13:50:15;;;;;;;85.95;36.13;;;;;;;;;;5104494;28;20032;-63
2022/04/16 13:52:42;;;;;;;87.68;35.40;;;;;;;;;;5101235;28;20026;-64
2022/04/16 13:55:08;;;;;;;94.03;36.17;;;;;;;;;;5096862;28;20024;-64
2022/04/16 13:57:34;;;;;;;79.43;32.53;;;;;;;;;;5107449;28;20019;-63
2022/04/16 14:00:00;;;;;;;77.28;30.98;;;;;;;;;;5095490;28;20486;-62
2022/04/16 14:02:26;;;;;;;73.97;28.00;;;;;;;;;;5102693;28;20451;-63
2022/04/16 14:07:38;;;;;;;67.88;25.80;;;;;;;;;;5093944;28;20549;-63
2022/04/16 14:10:05;;;;;;;66.47;23.83;;;;;;;;;;5105726;28;20035;-63
2022/04/16 14:12:31;;;;;;;58.60;23.60;;;;;;;;;;5099800;28;20024;-62
2022/04/16 14:14:58;;;;;;;52.45;21.55;;;;;;;;;;5104909;28;20095;-63
2022/04/16 14:17:24;;;;;;;58.00;22.50;;;;;;;;;;5083305;28;20051;-64
2022/04/16 14:19:50;;;;;;;46.88;18.77;;;;;;;;;;5103527;28;20020;-63
2022/04/16 14:22:16;;;;;;;45.40;18.83;;;;;;;;;;5110751;28;20479;-63
2022/04/16 14:24:42;;;;;;;50.13;18.92;;;;;;;;;;5094080;28;20510;-65
2022/04/16 14:27:08;;;;;;;46.55;17.58;;;;;;;;;;5106499;28;20051;-65
2022/04/16 14:29:34;;;;;;;41.42;17.95;;;;;;;;;;5105237;28;20020;-64
2022/04/16 14:32:00;;;;;;;34.70;15.43;;;;;;;;;;5100196;28;20445;-63
2022/04/16 14:34:26;;;;;;;33.47;14.15;;;;;;;;;;5110972;28;20080;-64
2022/04/16 14:36:52;;;;;;;37.63;14.00;;;;;;;;;;5080985;28;20024;-65
2022/04/16 14:39:18;;;;;;;38.15;14.40;;;;;;;;;;5105656;28;20023;-64
2022/04/16 14:41:45;;;;;;;34.33;13.10;;;;;;;;;;5106542;28;20088;-63
2022/04/16 14:44:11;;;;;;;34.15;13.02;;;;;;;;;;5097885;28;20163;-64
2022/04/16 14:46:37;;;;;;;34.90;12.80;;;;;;;;;;5110767;28;20020;-65
2022/04/16 14:49:05;;;;;;;29.60;12.02;;;;;;;;;;5082564;28;20051;-65
2022/04/16 14:51:33;;;;;;;28.27;11.50;;;;;;;;;;5103839;28;20036;-63
2022/04/16 14:54:00;;;;;;;27.33;10.27;;;;;;;;;;5108624;28;20106;-63
2022/04/16 14:56:26;;;;;;;25.13;10.27;;;;;;;;;;5097307;28;20019;-66
2022/04/16 14:58:53;;;;;;;23.48;8.98;;;;;;;;;;5108819;28;20020;-64
2022/04/16 15:01:19;;;;;;;24.45;8.57;;;;;;;;;;5102461;28;20061;-63
2022/04/16 15:03:46;;;;;;;27.73;8.85;;;;;;;;;;5101474;28;20037;-63
2022/04/16 15:06:12;;;;;;;22.40;9.13;;;;;;;;;;5099572;28;20020;-63